sensor_id;sensor_type;location;lat;lon;timestamp;pressure;altitude;pressure_sealevel;temperature
28905;BMP280;60848;53.884;11.446;2023-02-12T00:01:07;103127.63;;;8.32
28905;BMP280;60848;53.884;11.446;2023-02-12T00:03:36;103132.06;;;8.31
28905;BMP280;60848;53.884;11.446;2023-02-12T00:06:05;103139.31;;;8.34
28905;BMP280;60848;53.884;11.446;2023-02-12T00:08:34;103141.63;;;8.36
28905;BMP280;60848;53.884;11.446;2023-02-12T00:11:07;103134.31;;;8.38
28905;BMP280;60848;53.884;11.446;2023-02-12T00:13:37;103136.63;;;8.39
28905;BMP280;60848;53.884;11.446;2023-02-12T00:16:06;103136.13;;;8.37
28905;BMP280;60848;53.884;11.446;2023-02-12T00:18:35;103139.53;;;8.38
28905;BMP280;60848;53.884;11.446;2023-02-12T00:21:04;103141.63;;;8.36
28905;BMP280;60848;53.884;11.446;2023-02-12T00:23:35;103147.72;;;8.31
28905;BMP280;60848;53.884;11.446;2023-02-12T00:26:04;103150.81;;;8.33
28905;BMP280;60848;53.884;11.446;2023-02-12T00:28:33;103150.81;;;8.33
28905;BMP280;60848;53.884;11.446;2023-02-12T00:31:07;103159.91;;;8.36
28905;BMP280;60848;53.884;11.446;2023-02-12T00:33:36;103166.69;;;8.37
28905;BMP280;60848;53.884;11.446;2023-02-12T00:36:05;103168.75;;;8.35
28905;BMP280;60848;53.884;11.446;2023-02-12T00:38:34;103169.06;;;8.33
28905;BMP280;60848;53.884;11.446;2023-02-12T00:41:02;103166.16;;;8.35
28905;BMP280;60848;53.884;11.446;2023-02-12T00:43:30;103169.84;;;8.34
28905;BMP280;60848;53.884;11.446;2023-02-12T00:45:59;103168.75;;;8.35
28905;BMP280;60848;53.884;11.446;2023-02-12T00:48:29;103171.38;;;8.35
28905;BMP280;60848;53.884;11.446;2023-02-12T00:50:57;103172.66;;;8.37
28905;BMP280;60848;53.884;11.446;2023-02-12T00:53:25;103189.88;;;8.38
28905;BMP280;60848;53.884;11.446;2023-02-12T00:55:54;103188.53;;;8.41
28905;BMP280;60848;53.884;11.446;2023-02-12T00:58:22;103190.06;;;8.42
28905;BMP280;60848;53.884;11.446;2023-02-12T01:00:51;103192.69;;;8.42
28905;BMP280;60848;53.884;11.446;2023-02-12T01:03:20;103196.06;;;8.42
28905;BMP280;60848;53.884;11.446;2023-02-12T01:05:50;103198.09;;;8.45
28905;BMP280;60848;53.884;11.446;2023-02-12T01:08:19;103204.59;;;8.48
28905;BMP280;60848;53.884;11.446;2023-02-12T01:10:53;103203.75;;;8.52
28905;BMP280;60848;53.884;11.446;2023-02-12T01:13:22;103201.44;;;8.51
28905;BMP280;60848;53.884;11.446;2023-02-12T01:16:00;103206.09;;;8.54
28905;BMP280;60848;53.884;11.446;2023-02-12T01:18:29;103210.97;;;8.55
28905;BMP280;60848;53.884;11.446;2023-02-12T01:20:58;103205.22;;;8.58
28905;BMP280;60848;53.884;11.446;2023-02-12T01:23:27;103205.72;;;8.60
28905;BMP280;60848;53.884;11.446;2023-02-12T01:25:57;103216.16;;;8.60
28905;BMP280;60848;53.884;11.446;2023-02-12T01:28:25;103209.13;;;8.61
28905;BMP280;60848;53.884;11.446;2023-02-12T01:30:54;103207.25;;;8.61
28905;BMP280;60848;53.884;11.446;2023-02-12T01:33:22;103202.34;;;8.60
28905;BMP280;60848;53.884;11.446;2023-02-12T01:35:50;103203.41;;;8.59
28905;BMP280;60848;53.884;11.446;2023-02-12T01:38:21;103201.28;;;8.61
28905;BMP280;60848;53.884;11.446;2023-02-12T01:40:49;103199.66;;;8.65
28905;BMP280;60848;53.884;11.446;2023-02-12T01:43:17;103204.59;;;8.66
28905;BMP280;60848;53.884;11.446;2023-02-12T01:45:48;103208.47;;;8.69
28905;BMP280;60848;53.884;11.446;2023-02-12T01:48:16;103210.81;;;8.70
28905;BMP280;60848;53.884;11.446;2023-02-12T01:50:47;103212.84;;;8.73
28905;BMP280;60848;53.884;11.446;2023-02-12T01:53:16;103217.78;;;8.75
28905;BMP280;60848;53.884;11.446;2023-02-12T01:55:49;103213.06;;;8.77
28905;BMP280;60848;53.884;11.446;2023-02-12T01:58:19;103220.59;;;8.78
28905;BMP280;60848;53.884;11.446;2023-02-12T02:00:47;103214.59;;;8.78
28905;BMP280;60848;53.884;11.446;2023-02-12T02:03:15;103210.16;;;8.78
28905;BMP280;60848;53.884;11.446;2023-02-12T02:05:46;103215.09;;;8.80
28905;BMP280;60848;53.884;11.446;2023-02-12T02:08:16;103206.47;;;8.79
28905;BMP280;60848;53.884;11.446;2023-02-12T02:10:45;103207.25;;;8.80
28905;BMP280;60848;53.884;11.446;2023-02-12T02:13:14;103212.19;;;8.81
28905;BMP280;60848;53.884;11.446;2023-02-12T02:16:04;103198.66;;;8.79
28905;BMP280;60848;53.884;11.446;2023-02-12T02:18:37;103209.09;;;8.79
28905;BMP280;60848;53.884;11.446;2023-02-12T02:24:20;103215.16;;;8.75
28905;BMP280;60848;53.884;11.446;2023-02-12T02:29:46;103217.78;;;8.75
28905;BMP280;60848;53.884;11.446;2023-02-12T02:32:20;103211.78;;;8.74
28905;BMP280;60848;53.884;11.446;2023-02-12T02:34:54;103223.28;;;8.73
28905;BMP280;60848;53.884;11.446;2023-02-12T02:37:27;103211.78;;;8.74
28905;BMP280;60848;53.884;11.446;2023-02-12T02:39:59;103214.38;;;8.74
28905;BMP280;60848;53.884;11.446;2023-02-12T02:42:30;103213.59;;;8.74
28905;BMP280;60848;53.884;11.446;2023-02-12T02:45:05;103217.47;;;8.76
28905;BMP280;60848;53.884;11.446;2023-02-12T02:47:38;103220.09;;;8.76
28905;BMP280;60848;53.884;11.446;2023-02-12T02:50:11;103221.13;;;8.75
28905;BMP280;60848;53.884;11.446;2023-02-12T02:52:43;103225.59;;;8.75
28905;BMP280;60848;53.884;11.446;2023-02-12T02:55:15;103224.03;;;8.74
28905;BMP280;60848;53.884;11.446;2023-02-12T02:57:46;103213.41;;;8.70
28905;BMP280;60848;53.884;11.446;2023-02-12T03:00:17;103212.91;;;8.68
28905;BMP280;60848;53.884;11.446;2023-02-12T03:02:49;103214.22;;;8.66
28905;BMP280;60848;53.884;11.446;2023-02-12T03:05:20;103219.47;;;8.66
28905;BMP280;60848;53.884;11.446;2023-02-12T03:07:51;103224.97;;;8.64
28905;BMP280;60848;53.884;11.446;2023-02-12T03:10:22;103223.41;;;8.63
28905;BMP280;60848;53.884;11.446;2023-02-12T03:12:53;103225.47;;;8.66
28905;BMP280;60848;53.884;11.446;2023-02-12T03:15:25;103233.78;;;8.68
28905;BMP280;60848;53.884;11.446;2023-02-12T03:17:58;103225.66;;;8.70
28905;BMP280;60848;53.884;11.446;2023-02-12T03:20:29;103230.34;;;8.73
28905;BMP280;60848;53.884;11.446;2023-02-12T03:23:00;103228.97;;;8.75
28905;BMP280;60848;53.884;11.446;2023-02-12T03:25:33;103230.81;;;8.75
28905;BMP280;60848;53.884;11.446;2023-02-12T03:28:04;103240.19;;;8.76
28905;BMP280;60848;53.884;11.446;2023-02-12T03:30:39;103245.41;;;8.76
28905;BMP280;60848;53.884;11.446;2023-02-12T03:33:15;103248.50;;;8.78
28905;BMP280;60848;53.884;11.446;2023-02-12T03:35:53;103244.34;;;8.77
28905;BMP280;60848;53.884;11.446;2023-02-12T03:38:27;103256.34;;;8.78
28905;BMP280;60848;53.884;11.446;2023-02-12T03:41:01;103258.66;;;8.79
28905;BMP280;60848;53.884;11.446;2023-02-12T03:43:31;103266.50;;;8.79
28905;BMP280;60848;53.884;11.446;2023-02-12T03:46:01;103264.16;;;8.78
28905;BMP280;60848;53.884;11.446;2023-02-12T03:48:35;103271.50;;;8.76
28905;BMP280;60848;53.884;11.446;2023-02-12T03:51:11;103270.25;;;8.73
28905;BMP280;60848;53.884;11.446;2023-02-12T03:53:42;103275.53;;;8.68
28905;BMP280;60848;53.884;11.446;2023-02-12T03:56:12;103278.13;;;8.68
28905;BMP280;60848;53.884;11.446;2023-02-12T03:58:41;103274.19;;;8.71
28905;BMP280;60848;53.884;11.446;2023-02-12T04:01:10;103269.75;;;8.71
28905;BMP280;60848;53.884;11.446;2023-02-12T04:03:40;103290.59;;;8.71
28905;BMP280;60848;53.884;11.446;2023-02-12T04:06:18;103287.25;;;8.71
28905;BMP280;60848;53.884;11.446;2023-02-12T04:08:47;103284.63;;;8.71
28905;BMP280;60848;53.884;11.446;2023-02-12T04:11:24;103286.97;;;8.72
28905;BMP280;60848;53.884;11.446;2023-02-12T04:14:00;103286.97;;;8.72
28905;BMP280;60848;53.884;11.446;2023-02-12T04:16:39;103285.41;;;8.71
28905;BMP280;60848;53.884;11.446;2023-02-12T04:19:11;103287.50;;;8.69
28905;BMP280;60848;53.884;11.446;2023-02-12T04:21:46;103281.53;;;8.69
28905;BMP280;60848;53.884;11.446;2023-02-12T04:24:24;103293.28;;;8.66
28905;BMP280;60848;53.884;11.446;2023-02-12T04:26:57;103292.50;;;8.66
28905;BMP280;60848;53.884;11.446;2023-02-12T04:29:28;103291.72;;;8.65
28905;BMP280;60848;53.884;11.446;2023-02-12T04:32:03;103300.03;;;8.67
28905;BMP280;60848;53.884;11.446;2023-02-12T04:34:34;103303.94;;;8.70
28905;BMP280;60848;53.884;11.446;2023-02-12T04:37:08;103306.25;;;8.71
28905;BMP280;60848;53.884;11.446;2023-02-12T04:39:39;103305.00;;;8.69
28905;BMP280;60848;53.884;11.446;2023-02-12T04:42:08;103306.75;;;8.73
28905;BMP280;60848;53.884;11.446;2023-02-12T04:44:37;103311.69;;;8.75
28905;BMP280;60848;53.884;11.446;2023-02-12T04:47:06;103311.69;;;8.75
28905;BMP280;60848;53.884;11.446;2023-02-12T04:49:35;103304.38;;;8.77
28905;BMP280;60848;53.884;11.446;2023-02-12T04:52:04;103307.47;;;8.79
28905;BMP280;60848;53.884;11.446;2023-02-12T04:54:32;103311.63;;;8.80
28905;BMP280;60848;53.884;11.446;2023-02-12T04:57:01;103319.97;;;8.82
28905;BMP280;60848;53.884;11.446;2023-02-12T04:59:29;103313.38;;;8.84
28905;BMP280;60848;53.884;11.446;2023-02-12T05:01:57;103317.53;;;8.85
28905;BMP280;60848;53.884;11.446;2023-02-12T05:04:26;103313.91;;;8.86
28905;BMP280;60848;53.884;11.446;2023-02-12T05:06:55;103315.44;;;8.87
28905;BMP280;60848;53.884;11.446;2023-02-12T05:09:24;103313.91;;;8.86
28905;BMP280;60848;53.884;11.446;2023-02-12T05:11:52;103318.31;;;8.86
28905;BMP280;60848;53.884;11.446;2023-02-12T05:14:22;103323.84;;;8.84
28905;BMP280;60848;53.884;11.446;2023-02-12T05:16:51;103333.47;;;8.84
28905;BMP280;60848;53.884;11.446;2023-02-12T05:19:19;103324.16;;;8.83
28905;BMP280;60848;53.884;11.446;2023-02-12T05:21:48;103323.34;;;8.82
28905;BMP280;60848;53.884;11.446;2023-02-12T05:24:18;103318.94;;;8.83
28905;BMP280;60848;53.884;11.446;2023-02-12T05:26:47;103322.25;;;8.83
28905;BMP280;60848;53.884;11.446;2023-02-12T05:29:15;103329.38;;;8.83
28905;BMP280;60848;53.884;11.446;2023-02-12T05:31:44;103321.53;;;8.83
28905;BMP280;60848;53.884;11.446;2023-02-12T05:34:13;103319.66;;;8.83
28905;BMP280;60848;53.884;11.446;2023-02-12T05:36:41;103321.53;;;8.83
28905;BMP280;60848;53.884;11.446;2023-02-12T05:39:09;103317.03;;;8.83
28905;BMP280;60848;53.884;11.446;2023-02-12T05:41:39;103324.16;;;8.83
28905;BMP280;60848;53.884;11.446;2023-02-12T05:44:07;103325.19;;;8.82
28905;BMP280;60848;53.884;11.446;2023-02-12T05:46:37;103321.28;;;8.79
28905;BMP280;60848;53.884;11.446;2023-02-12T05:49:06;103328.06;;;8.80
28905;BMP280;60848;53.884;11.446;2023-02-12T05:51:35;103325.75;;;8.79
28905;BMP280;60848;53.884;11.446;2023-02-12T05:54:05;103330.19;;;8.78
28905;BMP280;60848;53.884;11.446;2023-02-12T05:56:35;103332.00;;;8.78
28905;BMP280;60848;53.884;11.446;2023-02-12T05:59:06;103338.31;;;8.77
28905;BMP280;60848;53.884;11.446;2023-02-12T06:01:36;103339.06;;;8.77
28905;BMP280;60848;53.884;11.446;2023-02-12T06:04:06;103345.06;;;8.78
28905;BMP280;60848;53.884;11.446;2023-02-12T06:06:35;103337.22;;;8.78
28905;BMP280;60848;53.884;11.446;2023-02-12T06:09:03;103334.13;;;8.76
28905;BMP280;60848;53.884;11.446;2023-02-12T06:11:31;103333.34;;;8.75
28905;BMP280;60848;53.884;11.446;2023-02-12T06:14:01;103340.91;;;8.77
28905;BMP280;60848;53.884;11.446;2023-02-12T06:16:31;103345.84;;;8.78
28905;BMP280;60848;53.884;11.446;2023-02-12T06:19:01;103342.44;;;8.78
28905;BMP280;60848;53.884;11.446;2023-02-12T06:21:30;103345.06;;;8.78
28905;BMP280;60848;53.884;11.446;2023-02-12T06:23:59;103345.06;;;8.78
28905;BMP280;60848;53.884;11.446;2023-02-12T06:26:27;103337.22;;;8.78
28905;BMP280;60848;53.884;11.446;2023-02-12T06:28:56;103342.94;;;8.80
28905;BMP280;60848;53.884;11.446;2023-02-12T06:31:25;103349.50;;;8.77
28905;BMP280;60848;53.884;11.446;2023-02-12T06:33:57;103353.16;;;8.76
28905;BMP280;60848;53.884;11.446;2023-02-12T06:36:26;103350.38;;;8.73
28905;BMP280;60848;53.884;11.446;2023-02-12T06:38:54;103357.69;;;8.71
28905;BMP280;60848;53.884;11.446;2023-02-12T06:41:23;103354.00;;;8.72
28905;BMP280;60848;53.884;11.446;2023-02-12T06:43:51;103361.34;;;8.70
28905;BMP280;60848;53.884;11.446;2023-02-12T06:46:19;103363.72;;;8.66
28905;BMP280;60848;53.884;11.446;2023-02-12T06:48:48;103372.34;;;8.67
28905;BMP280;60848;53.884;11.446;2023-02-12T06:51:21;103385.38;;;8.67
28905;BMP280;60848;53.884;11.446;2023-02-12T06:53:50;103389.53;;;8.68
28905;BMP280;60848;53.884;11.446;2023-02-12T06:56:20;103390.31;;;8.68
28905;BMP280;60848;53.884;11.446;2023-02-12T06:58:51;103386.13;;;8.72
28905;BMP280;60848;53.884;11.446;2023-02-12T07:01:22;103396.84;;;8.71
28905;BMP280;60848;53.884;11.446;2023-02-12T07:03:52;103386.13;;;8.67
28905;BMP280;60848;53.884;11.446;2023-02-12T07:06:22;103392.44;;;8.66
28905;BMP280;60848;53.884;11.446;2023-02-12T07:08:50;103388.25;;;8.65
28905;BMP280;60848;53.884;11.446;2023-02-12T07:11:22;103397.66;;;8.66
28905;BMP280;60848;53.884;11.446;2023-02-12T07:13:51;103404.41;;;8.67
28905;BMP280;60848;53.884;11.446;2023-02-12T07:16:19;103408.31;;;8.70
28905;BMP280;60848;53.884;11.446;2023-02-12T07:18:47;103396.03;;;8.70
28905;BMP280;60848;53.884;11.446;2023-02-12T07:21:16;103412.69;;;8.74
28905;BMP280;60848;53.884;11.446;2023-02-12T07:23:46;103418.69;;;8.75
28905;BMP280;60848;53.884;11.446;2023-02-12T07:26:18;103422.84;;;8.76
28905;BMP280;60848;53.884;11.446;2023-02-12T07:28:46;103424.66;;;8.75
28905;BMP280;60848;53.884;11.446;2023-02-12T07:31:16;103419.44;;;8.75
28905;BMP280;60848;53.884;11.446;2023-02-12T07:33:45;103436.38;;;8.78
28905;BMP280;60848;53.884;11.446;2023-02-12T07:36:15;103424.34;;;8.82
28905;BMP280;60848;53.884;11.446;2023-02-12T07:38:43;103423.78;;;8.85
28905;BMP280;60848;53.884;11.446;2023-02-12T07:41:15;103427.94;;;8.86
28905;BMP280;60848;53.884;11.446;2023-02-12T07:43:45;103431.63;;;8.85
28905;BMP280;60848;53.884;11.446;2023-02-12T07:46:15;103435.78;;;8.86
28905;BMP280;60848;53.884;11.446;2023-02-12T07:48:44;103438.19;;;8.82
28905;BMP280;60848;53.884;11.446;2023-02-12T07:51:14;103437.69;;;8.80
28905;BMP280;60848;53.884;11.446;2023-02-12T07:53:45;103440.56;;;8.79
28905;BMP280;60848;53.884;11.446;2023-02-12T07:56:16;103445.78;;;8.79
28905;BMP280;60848;53.884;11.446;2023-02-12T07:58:45;103449.94;;;8.80
28905;BMP280;60848;53.884;11.446;2023-02-12T08:01:16;103446.00;;;8.82
28905;BMP280;60848;53.884;11.446;2023-02-12T08:03:45;103456.94;;;8.84
28905;BMP280;60848;53.884;11.446;2023-02-12T08:06:15;103455.59;;;8.87
28905;BMP280;60848;53.884;11.446;2023-02-12T08:08:45;103460.25;;;8.90
28905;BMP280;60848;53.884;11.446;2023-02-12T08:11:14;103464.44;;;8.91
28905;BMP280;60848;53.884;11.446;2023-02-12T08:13:44;103456.63;;;8.91
28905;BMP280;60848;53.884;11.446;2023-02-12T08:16:14;103460.78;;;8.92
28905;BMP280;60848;53.884;11.446;2023-02-12T08:18:42;103456.88;;;8.89
28905;BMP280;60848;53.884;11.446;2023-02-12T08:21:12;103461.59;;;8.87
28905;BMP280;60848;53.884;11.446;2023-02-12T08:23:40;103454.81;;;8.86
28905;BMP280;60848;53.884;11.446;2023-02-12T08:26:10;103461.88;;;8.86
28905;BMP280;60848;53.884;11.446;2023-02-12T08:28:41;103461.34;;;8.89
28905;BMP280;60848;53.884;11.446;2023-02-12T08:31:12;103452.16;;;8.91
28905;BMP280;60848;53.884;11.446;2023-02-12T08:33:41;103449.28;;;8.93
28905;BMP280;60848;53.884;11.446;2023-02-12T08:36:10;103454.44;;;8.98
28905;BMP280;60848;53.884;11.446;2023-02-12T08:38:41;103456.75;;;8.99
28905;BMP280;60848;53.884;11.446;2023-02-12T08:41:11;103464.03;;;9.02
28905;BMP280;60848;53.884;11.446;2023-02-12T08:43:42;103460.09;;;9.05
28905;BMP280;60848;53.884;11.446;2023-02-12T08:46:12;103465.25;;;9.10
28905;BMP280;60848;53.884;11.446;2023-02-12T08:48:41;103458.69;;;9.12
28905;BMP280;60848;53.884;11.446;2023-02-12T08:51:10;103459.69;;;9.16
28905;BMP280;60848;53.884;11.446;2023-02-12T08:53:40;103459.63;;;9.21
28905;BMP280;60848;53.884;11.446;2023-02-12T08:56:10;103457.22;;;9.25
28905;BMP280;60848;53.884;11.446;2023-02-12T08:58:38;103455.91;;;9.27
28905;BMP280;60848;53.884;11.446;2023-02-12T09:01:11;103450.09;;;9.30
28905;BMP280;60848;53.884;11.446;2023-02-12T09:03:39;103463.66;;;9.32
28905;BMP280;60848;53.884;11.446;2023-02-12T09:06:08;103465.72;;;9.36
28905;BMP280;60848;53.884;11.446;2023-02-12T09:08:37;103464.66;;;9.37
28905;BMP280;60848;53.884;11.446;2023-02-12T09:11:06;103466.22;;;9.38
28905;BMP280;60848;53.884;11.446;2023-02-12T09:13:35;103463.09;;;9.36
28905;BMP280;60848;53.884;11.446;2023-02-12T09:16:04;103457.31;;;9.39
28905;BMP280;60848;53.884;11.446;2023-02-12T09:18:34;103460.34;;;9.46
28905;BMP280;60848;53.884;11.446;2023-02-12T09:21:05;103461.59;;;9.48
28905;BMP280;60848;53.884;11.446;2023-02-12T09:23:34;103462.59;;;9.52
28905;BMP280;60848;53.884;11.446;2023-02-12T09:26:03;103459.91;;;9.57
28905;BMP280;60848;53.884;11.446;2023-02-12T09:28:32;103460.13;;;9.61
28905;BMP280;60848;53.884;11.446;2023-02-12T09:31:04;103458.72;;;9.68
28905;BMP280;60848;53.884;11.446;2023-02-12T09:33:34;103465.44;;;9.74
28905;BMP280;60848;53.884;11.446;2023-02-12T09:36:03;103469.22;;;9.82
28905;BMP280;60848;53.884;11.446;2023-02-12T09:38:31;103465.47;;;9.88
28905;BMP280;60848;53.884;11.446;2023-02-12T09:41:08;103469.38;;;9.90
28905;BMP280;60848;53.884;11.446;2023-02-12T09:43:40;103469.75;;;9.97
28905;BMP280;60848;53.884;11.446;2023-02-12T09:46:15;103464.25;;;9.99
28905;BMP280;60848;53.884;11.446;2023-02-12T09:48:52;103474.03;;;10.07
28905;BMP280;60848;53.884;11.446;2023-02-12T09:51:21;103479.69;;;10.14
28905;BMP280;60848;53.884;11.446;2023-02-12T09:53:59;103469.06;;;10.24
28905;BMP280;60848;53.884;11.446;2023-02-12T09:56:29;103474.53;;;10.41
28905;BMP280;60848;53.884;11.446;2023-02-12T09:58:58;103479.16;;;10.57
28905;BMP280;60848;53.884;11.446;2023-02-12T10:01:28;103479.16;;;10.85
28905;BMP280;60848;53.884;11.446;2023-02-12T10:03:58;103488.00;;;11.24
28905;BMP280;60848;53.884;11.446;2023-02-12T10:06:28;103481.56;;;11.66
28905;BMP280;60848;53.884;11.446;2023-02-12T10:09:16;103470.88;;;12.15
28905;BMP280;60848;53.884;11.446;2023-02-12T10:11:52;103477.97;;;12.54
28905;BMP280;60848;53.884;11.446;2023-02-12T10:14:41;103470.19;;;12.88
28905;BMP280;60848;53.884;11.446;2023-02-12T10:17:28;103470.22;;;13.13
28905;BMP280;60848;53.884;11.446;2023-02-12T10:25:57;103475.28;;;13.35
28905;BMP280;60848;53.884;11.446;2023-02-12T10:28:29;103475.59;;;13.34
28905;BMP280;60848;53.884;11.446;2023-02-12T10:30:59;103477.91;;;13.35
28905;BMP280;60848;53.884;11.446;2023-02-12T10:33:33;103485.47;;;13.37
28905;BMP280;60848;53.884;11.446;2023-02-12T10:36:10;103482.84;;;13.37
28905;BMP280;60848;53.884;11.446;2023-02-12T10:38:44;103480.69;;;13.39
28905;BMP280;60848;53.884;11.446;2023-02-12T10:41:14;103486.84;;;13.34
28905;BMP280;60848;53.884;11.446;2023-02-12T10:43:43;103479.94;;;13.30
28905;BMP280;60848;53.884;11.446;2023-02-12T10:46:12;103475.59;;;13.25
28905;BMP280;60848;53.884;11.446;2023-02-12T10:48:43;103484.28;;;13.26
28905;BMP280;60848;53.884;11.446;2023-02-12T10:51:27;103483.16;;;13.27
28905;BMP280;60848;53.884;11.446;2023-02-12T10:53:59;103489.34;;;13.22
28905;BMP280;60848;53.884;11.446;2023-02-12T10:56:48;103478.09;;;13.13
28905;BMP280;60848;53.884;11.446;2023-02-12T10:59:21;103473.59;;;13.05
28905;BMP280;60848;53.884;11.446;2023-02-12T11:01:49;103472.69;;;13.01
28905;BMP280;60848;53.884;11.446;2023-02-12T11:04:20;103476.38;;;13.00
28905;BMP280;60848;53.884;11.446;2023-02-12T11:06:58;103484.09;;;12.97
28905;BMP280;60848;53.884;11.446;2023-02-12T11:09:28;103480.22;;;12.94
28905;BMP280;60848;53.884;11.446;2023-02-12T11:11:58;103480.22;;;12.94
28905;BMP280;60848;53.884;11.446;2023-02-12T11:14:27;103474.50;;;12.92
28905;BMP280;60848;53.884;11.446;2023-02-12T11:16:56;103479.28;;;12.90
28905;BMP280;60848;53.884;11.446;2023-02-12T11:19:28;103476.97;;;12.89
28905;BMP280;60848;53.884;11.446;2023-02-12T11:22:05;103472.66;;;12.93
28905;BMP280;60848;53.884;11.446;2023-02-12T11:24:35;103472.50;;;12.98
28905;BMP280;60848;53.884;11.446;2023-02-12T11:27:21;103463.53;;;12.99
28905;BMP280;60848;53.884;11.446;2023-02-12T11:30:11;103469.28;;;13.01
28905;BMP280;60848;53.884;11.446;2023-02-12T11:32:40;103468.66;;;13.04
28905;BMP280;60848;53.884;11.446;2023-02-12T11:35:13;103467.69;;;13.08
28905;BMP280;60848;53.884;11.446;2023-02-12T11:37:44;103466.63;;;13.09
28905;BMP280;60848;53.884;11.446;2023-02-12T11:40:21;103462.44;;;13.08
28905;BMP280;60848;53.884;11.446;2023-02-12T11:42:53;103459.22;;;13.11
28905;BMP280;60848;53.884;11.446;2023-02-12T11:45:26;103460.91;;;13.16
28905;BMP280;60848;53.884;11.446;2023-02-12T11:47:57;103455.19;;;13.22
28905;BMP280;60848;53.884;11.446;2023-02-12T11:50:26;103458.28;;;13.24
28905;BMP280;60848;53.884;11.446;2023-02-12T11:52:57;103452.75;;;13.26
28905;BMP280;60848;53.884;11.446;2023-02-12T11:55:27;103450.53;;;13.28
28905;BMP280;60848;53.884;11.446;2023-02-12T11:58:04;103453.66;;;13.30
28905;BMP280;60848;53.884;11.446;2023-02-12T12:00:35;103453.47;;;13.35
28905;BMP280;60848;53.884;11.446;2023-02-12T12:03:10;103456.09;;;13.43
28905;BMP280;60848;53.884;11.446;2023-02-12T12:05:43;103452.22;;;13.49
28905;BMP280;60848;53.884;11.446;2023-02-12T12:08:14;103454.38;;;13.47
28905;BMP280;60848;53.884;11.446;2023-02-12T12:10:46;103453.59;;;13.47
28905;BMP280;60848;53.884;11.446;2023-02-12T12:13:19;103450.19;;;13.46
28905;BMP280;60848;53.884;11.446;2023-02-12T12:15:56;103455.03;;;13.36
28905;BMP280;60848;53.884;11.446;2023-02-12T12:18:44;103459.81;;;13.34
28905;BMP280;60848;53.884;11.446;2023-02-12T12:21:35;103450.06;;;13.34
28905;BMP280;60848;53.884;11.446;2023-02-12T12:24:08;103457.66;;;13.36
28905;BMP280;60848;53.884;11.446;2023-02-12T12:26:38;103452.88;;;13.38
28905;BMP280;60848;53.884;11.446;2023-02-12T12:29:14;103445.44;;;13.40
28905;BMP280;60848;53.884;11.446;2023-02-12T12:31:44;103442.94;;;13.35
28905;BMP280;60848;53.884;11.446;2023-02-12T12:34:14;103441.88;;;13.36
28905;BMP280;60848;53.884;11.446;2023-02-12T12:37:08;103443.88;;;13.39
28905;BMP280;60848;53.884;11.446;2023-02-12T12:39:46;103453.16;;;13.36
28905;BMP280;60848;53.884;11.446;2023-02-12T12:42:45;103445.13;;;13.33
28905;BMP280;60848;53.884;11.446;2023-02-12T12:45:27;103440.66;;;13.33
28905;BMP280;60848;53.884;11.446;2023-02-12T12:48:05;103443.41;;;13.37
28905;BMP280;60848;53.884;11.446;2023-02-12T12:50:49;103440.16;;;13.40
28905;BMP280;60848;53.884;11.446;2023-02-12T12:53:25;103434.59;;;13.41
28905;BMP280;60848;53.884;11.446;2023-02-12T13:03:08;103425.63;;;13.42
28905;BMP280;60848;53.884;11.446;2023-02-12T13:05:50;103426.72;;;13.41
28905;BMP280;60848;53.884;11.446;2023-02-12T13:08:33;103424.22;;;13.36
28905;BMP280;60848;53.884;11.446;2023-02-12T13:11:07;103428.44;;;13.37
28905;BMP280;60848;53.884;11.446;2023-02-12T13:13:40;103430.75;;;13.39
28905;BMP280;60848;53.884;11.446;2023-02-12T13:16:12;103423.78;;;13.43
28905;BMP280;60848;53.884;11.446;2023-02-12T13:18:49;103425.47;;;13.47
28905;BMP280;60848;53.884;11.446;2023-02-12T13:21:30;103430.88;;;13.51
28905;BMP280;60848;53.884;11.446;2023-02-12T13:24:02;103415.25;;;13.54
28905;BMP280;60848;53.884;11.446;2023-02-12T13:26:35;103418.34;;;13.56
28905;BMP280;60848;53.884;11.446;2023-02-12T13:29:11;103417.56;;;13.56
28905;BMP280;60848;53.884;11.446;2023-02-12T13:31:44;103413.84;;;13.57
28905;BMP280;60848;53.884;11.446;2023-02-12T13:34:16;103418.47;;;13.60
28905;BMP280;60848;53.884;11.446;2023-02-12T13:36:45;103417.84;;;13.63
28905;BMP280;60848;53.884;11.446;2023-02-12T13:39:17;103416.00;;;13.63
28905;BMP280;60848;53.884;11.446;2023-02-12T13:41:56;103419.41;;;13.64
28905;BMP280;60848;53.884;11.446;2023-02-12T13:44:27;103411.81;;;13.62
28905;BMP280;60848;53.884;11.446;2023-02-12T13:47:03;103421.56;;;13.62
28905;BMP280;60848;53.884;11.446;2023-02-12T13:49:40;103418.16;;;13.61
28905;BMP280;60848;53.884;11.446;2023-02-12T13:52:13;103416.66;;;13.52
28905;BMP280;60848;53.884;11.446;2023-02-12T13:54:48;103412.00;;;13.49
28905;BMP280;60848;53.884;11.446;2023-02-12T13:57:21;103416.66;;;13.52
28905;BMP280;60848;53.884;11.446;2023-02-12T13:59:50;103407.97;;;13.51
28905;BMP280;60848;53.884;11.446;2023-02-12T14:02:39;103407.97;;;13.51
28905;BMP280;60848;53.884;11.446;2023-02-12T14:05:20;103406.56;;;13.54
28905;BMP280;60848;53.884;11.446;2023-02-12T14:07:51;103412.16;;;13.52
28905;BMP280;60848;53.884;11.446;2023-02-12T14:10:22;103405.94;;;13.57
28905;BMP280;60848;53.884;11.446;2023-02-12T14:12:51;103403.75;;;13.59
28905;BMP280;60848;53.884;11.446;2023-02-12T14:15:39;103403.63;;;13.55
28905;BMP280;60848;53.884;11.446;2023-02-12T14:18:37;103400.09;;;13.51
28905;BMP280;60848;53.884;11.446;2023-02-12T14:21:37;103397.31;;;13.48
28905;BMP280;60848;53.884;11.446;2023-02-12T14:27:21;103401.47;;;13.40
28905;BMP280;60848;53.884;11.446;2023-02-12T14:32:59;103409.56;;;13.27
28905;BMP280;60848;53.884;11.446;2023-02-12T14:35:38;103405.22;;;13.22
28905;BMP280;60848;53.884;11.446;2023-02-12T14:41:24;103399.25;;;13.05
28905;BMP280;60848;53.884;11.446;2023-02-12T14:49:56;103395.69;;;13.01
28905;BMP280;60848;53.884;11.446;2023-02-12T14:52:28;103397.22;;;13.02